EWG7DB EDDH-LIPZ
Flight info
| Callsign | EWG7DB |
|---|---|
| Flight time | 1h 30m |
| Altitude | 37000 |
| Route | IDEKO8C/05 IDEKO N850 XAROL/N0459F380 DCT BOMBI DCT GIGET DCT ABUKA/N0460F390 DCT TEDGO DCT BATUB/N0469F290 M738 ADOSA L612 ALBET |
| Aircraft | A319/M-SDE3FGHIRWY/LB1 |
Departure
| Time | 2026-05-06 13:46 |
|---|---|
| Airport | Hamburg Helmut Schmidt Airport (EDDH) |
Arrival
| Time | 2026-05-06 15:16 |
|---|---|
| Airport | Venice Marco Polo Airport (LIPZ) |
| Time | Latitude | Longitude | Altitude | Speed | Heading |
|---|---|---|---|---|---|
| 2026-05-06 13:03 | 53.62772 | 10.00275 | 41 ft | 0 kts | 63° |
| 2026-05-06 13:28 | 53.62768 | 10.00260 | 41 ft | 2 kts | 63° |
| 2026-05-06 13:28 | 53.62761 | 10.00237 | 40 ft | 2 kts | 63° |
| 2026-05-06 13:28 | 53.62754 | 10.00214 | 40 ft | 1 kts | 63° |
| 2026-05-06 13:29 | 53.62750 | 10.00200 | 40 ft | 2 kts | 55° |
| 2026-05-06 13:29 | 53.62738 | 10.00184 | 40 ft | 2 kts | 22° |
| 2026-05-06 13:29 | 53.62723 | 10.00179 | 40 ft | 2 kts | 353° |
| 2026-05-06 13:29 | 53.62714 | 10.00183 | 40 ft | 0 kts | 335° |
| 2026-05-06 13:30 | 53.62707 | 10.00189 | 41 ft | 0 kts | 332° |
| 2026-05-06 13:34 | 53.62707 | 10.00188 | 41 ft | 0 kts | 332° |
| 2026-05-06 13:34 | 53.62723 | 10.00175 | 40 ft | 4 kts | 333° |
| 2026-05-06 13:35 | 53.62757 | 10.00146 | 39 ft | 0 kts | 333° |
| 2026-05-06 13:35 | 53.62772 | 10.00133 | 38 ft | 4 kts | 333° |
| 2026-05-06 13:35 | 53.62808 | 10.00103 | 37 ft | 6 kts | 328° |
| 2026-05-06 13:35 | 53.62834 | 10.00049 | 35 ft | 6 kts | 289° |
| 2026-05-06 13:36 | 53.62827 | 9.99991 | 34 ft | 0 kts | 234° |
| 2026-05-06 13:36 | 53.62823 | 9.99984 | 34 ft | 1 kts | 228° |
| 2026-05-06 13:36 | 53.62805 | 9.99962 | 35 ft | 4 kts | 209° |
| 2026-05-06 13:37 | 53.62769 | 9.99930 | 35 ft | 7 kts | 208° |
| 2026-05-06 13:37 | 53.62719 | 9.99885 | 37 ft | 9 kts | 208° |
| 2026-05-06 13:37 | 53.62660 | 9.99819 | 38 ft | 11 kts | 228° |
| 2026-05-06 13:37 | 53.62629 | 9.99690 | 39 ft | 13 kts | 258° |
| 2026-05-06 13:38 | 53.62612 | 9.99536 | 40 ft | 13 kts | 259° |
| 2026-05-06 13:38 | 53.62594 | 9.99376 | 40 ft | 14 kts | 259° |
| 2026-05-06 13:38 | 53.62576 | 9.99219 | 44 ft | 12 kts | 259° |
| 2026-05-06 13:38 | 53.62560 | 9.99076 | 45 ft | 13 kts | 259° |
| 2026-05-06 13:39 | 53.62541 | 9.98909 | 43 ft | 15 kts | 259° |
| 2026-05-06 13:39 | 53.62521 | 9.98725 | 42 ft | 17 kts | 259° |
| 2026-05-06 13:39 | 53.62497 | 9.98513 | 38 ft | 19 kts | 261° |
| 2026-05-06 13:39 | 53.62471 | 9.98285 | 37 ft | 20 kts | 258° |
| 2026-05-06 13:40 | 53.62398 | 9.98029 | 34 ft | 11 kts | 231° |
| 2026-05-06 13:40 | 53.62361 | 9.97954 | 33 ft | 12 kts | 230° |
| 2026-05-06 13:40 | 53.62324 | 9.97877 | 33 ft | 5 kts | 230° |
| 2026-05-06 13:40 | 53.62297 | 9.97824 | 32 ft | 7 kts | 230° |
| 2026-05-06 13:41 | 53.62266 | 9.97760 | 32 ft | 6 kts | 230° |
| 2026-05-06 13:41 | 53.62233 | 9.97694 | 31 ft | 8 kts | 230° |
| 2026-05-06 13:41 | 53.62215 | 9.97657 | 30 ft | 0 kts | 230° |
| 2026-05-06 13:42 | 53.62214 | 9.97655 | 30 ft | 0 kts | 230° |
| 2026-05-06 13:42 | 53.62209 | 9.97645 | 30 ft | 1 kts | 230° |
| 2026-05-06 13:42 | 53.62198 | 9.97624 | 30 ft | 4 kts | 230° |
| 2026-05-06 13:43 | 53.62178 | 9.97556 | 29 ft | 9 kts | 259° |
| 2026-05-06 13:43 | 53.62191 | 9.97446 | 28 ft | 6 kts | 297° |
| 2026-05-06 13:43 | 53.62194 | 9.97437 | 28 ft | 0 kts | 300° |
| 2026-05-06 13:44 | 53.62197 | 9.97429 | 28 ft | 1 kts | 304° |
| 2026-05-06 13:44 | 53.62210 | 9.97405 | 28 ft | 3 kts | 320° |
| 2026-05-06 13:44 | 53.62244 | 9.97371 | 28 ft | 8 kts | 339° |
| 2026-05-06 13:44 | 53.62314 | 9.97378 | 28 ft | 11 kts | 25° |
| 2026-05-06 13:45 | 53.62338 | 9.97411 | 28 ft | 0 kts | 47° |
| 2026-05-06 13:45 | 53.62389 | 9.97509 | 28 ft | 40 kts | 50° |
| 2026-05-06 13:45 | 53.62732 | 9.98210 | 35 ft | 111 kts | 49° |
| 2026-05-06 13:46 | 53.63336 | 9.99460 | 211 ft | 152 kts | 50° |
| 2026-05-06 13:46 | 53.64026 | 10.00806 | 894 ft | 152 kts | 49° |
| 2026-05-06 13:46 | 53.64690 | 10.02119 | 1698 ft | 148 kts | 50° |
| 2026-05-06 13:46 | 53.65341 | 10.03433 | 2326 ft | 156 kts | 50° |
| 2026-05-06 13:47 | 53.66071 | 10.04916 | 2816 ft | 173 kts | 51° |
| 2026-05-06 13:47 | 53.66875 | 10.06559 | 3308 ft | 190 kts | 51° |
| 2026-05-06 13:47 | 53.67742 | 10.08329 | 3817 ft | 208 kts | 49° |
| 2026-05-06 13:47 | 53.68942 | 10.09767 | 4422 ft | 227 kts | 21° |
| 2026-05-06 13:48 | 53.70599 | 10.09958 | 4846 ft | 255 kts | 350° |
| 2026-05-06 13:48 | 53.72169 | 10.08472 | 4975 ft | 271 kts | 316° |
| 2026-05-06 13:48 | 53.73181 | 10.05715 | 5105 ft | 282 kts | 298° |
| 2026-05-06 13:48 | 53.74012 | 10.02734 | 5883 ft | 287 kts | 297° |
| 2026-05-06 13:49 | 53.74819 | 9.99717 | 7034 ft | 282 kts | 291° |
| 2026-05-06 13:49 | 53.75012 | 9.96430 | 7829 ft | 292 kts | 261° |
| 2026-05-06 13:49 | 53.74372 | 9.93217 | 8710 ft | 293 kts | 248° |
| 2026-05-06 13:49 | 53.73548 | 9.90085 | 9376 ft | 293 kts | 246° |
| 2026-05-06 13:50 | 53.72707 | 9.86945 | 9762 ft | 293 kts | 246° |
| 2026-05-06 13:50 | 53.71889 | 9.83840 | 9857 ft | 292 kts | 247° |
| 2026-05-06 13:50 | 53.71064 | 9.80652 | 9983 ft | 297 kts | 247° |
| 2026-05-06 13:50 | 53.70236 | 9.77415 | 10386 ft | 314 kts | 247° |
| 2026-05-06 13:51 | 53.69348 | 9.73934 | 10809 ft | 332 kts | 248° |
| 2026-05-06 13:51 | 53.68407 | 9.70246 | 11187 ft | 351 kts | 248° |
| 2026-05-06 13:51 | 53.67426 | 9.66398 | 11515 ft | 369 kts | 248° |
| 2026-05-06 13:51 | 53.66277 | 9.62387 | 11800 ft | 387 kts | 238° |
| 2026-05-06 13:52 | 53.64399 | 9.59110 | 12109 ft | 403 kts | 216° |
| 2026-05-06 13:52 | 53.61813 | 9.57168 | 12613 ft | 411 kts | 194° |
| 2026-05-06 13:52 | 53.58981 | 9.56538 | 13279 ft | 414 kts | 186° |
| 2026-05-06 13:52 | 53.56102 | 9.56031 | 13805 ft | 418 kts | 187° |
| 2026-05-06 13:53 | 53.53243 | 9.55501 | 14399 ft | 422 kts | 187° |
| 2026-05-06 13:53 | 53.50319 | 9.54941 | 15024 ft | 423 kts | 189° |
| 2026-05-06 13:53 | 53.47411 | 9.54376 | 15769 ft | 420 kts | 188° |
| 2026-05-06 13:53 | 53.44506 | 9.53805 | 16353 ft | 422 kts | 187° |
| 2026-05-06 13:54 | 53.41626 | 9.53235 | 16922 ft | 423 kts | 187° |
| 2026-05-06 13:54 | 53.38736 | 9.52662 | 17769 ft | 416 kts | 188° |
| 2026-05-06 13:54 | 53.35894 | 9.52112 | 18713 ft | 408 kts | 188° |
| 2026-05-06 13:54 | 53.33073 | 9.51557 | 19356 ft | 408 kts | 187° |
| 2026-05-06 13:55 | 53.30265 | 9.51009 | 19779 ft | 413 kts | 187° |
| 2026-05-06 13:55 | 53.27418 | 9.50450 | 20232 ft | 417 kts | 187° |
| 2026-05-06 13:55 | 53.24520 | 9.49884 | 20702 ft | 420 kts | 187° |
| 2026-05-06 13:55 | 53.21600 | 9.49314 | 21185 ft | 423 kts | 187° |
| 2026-05-06 13:56 | 53.18679 | 9.48746 | 21616 ft | 426 kts | 187° |
| 2026-05-06 13:56 | 53.15718 | 9.48170 | 22021 ft | 429 kts | 187° |
| 2026-05-06 13:56 | 53.12768 | 9.47594 | 22442 ft | 432 kts | 187° |
| 2026-05-06 13:56 | 53.09795 | 9.47020 | 22846 ft | 435 kts | 187° |
| 2026-05-06 13:57 | 53.06765 | 9.46434 | 23239 ft | 438 kts | 187° |
| 2026-05-06 13:57 | 53.03734 | 9.45848 | 23630 ft | 441 kts | 187° |
| 2026-05-06 13:57 | 53.00699 | 9.45261 | 24021 ft | 444 kts | 187° |
| 2026-05-06 13:57 | 52.97666 | 9.44660 | 24385 ft | 446 kts | 187° |
| 2026-05-06 13:58 | 52.94550 | 9.43999 | 24759 ft | 449 kts | 188° |
| 2026-05-06 13:58 | 52.91476 | 9.43330 | 25147 ft | 450 kts | 188° |
| 2026-05-06 13:58 | 52.88335 | 9.42650 | 25491 ft | 453 kts | 188° |
| 2026-05-06 13:58 | 52.85212 | 9.41983 | 25829 ft | 456 kts | 188° |
| 2026-05-06 13:59 | 52.82068 | 9.41315 | 26152 ft | 458 kts | 188° |
| 2026-05-06 13:59 | 52.78945 | 9.40652 | 26464 ft | 460 kts | 188° |
| 2026-05-06 13:59 | 52.75733 | 9.39970 | 26768 ft | 461 kts | 188° |
| 2026-05-06 13:59 | 52.72544 | 9.39293 | 27049 ft | 463 kts | 187° |
| 2026-05-06 14:00 | 52.69346 | 9.38614 | 27304 ft | 465 kts | 187° |
| 2026-05-06 14:00 | 52.66155 | 9.37938 | 27558 ft | 467 kts | 187° |
| 2026-05-06 14:00 | 52.62942 | 9.37260 | 27789 ft | 469 kts | 187° |
| 2026-05-06 14:00 | 52.59678 | 9.36491 | 28005 ft | 470 kts | 189° |
| 2026-05-06 14:01 | 52.56462 | 9.35645 | 28216 ft | 472 kts | 189° |
| 2026-05-06 14:01 | 52.53224 | 9.34769 | 28699 ft | 467 kts | 188° |
| 2026-05-06 14:01 | 52.50044 | 9.33898 | 29615 ft | 455 kts | 189° |
| 2026-05-06 14:01 | 52.46957 | 9.33064 | 30318 ft | 448 kts | 188° |
| 2026-05-06 14:02 | 52.43929 | 9.32259 | 30735 ft | 447 kts | 188° |
| 2026-05-06 14:02 | 52.40852 | 9.31455 | 31322 ft | 441 kts | 188° |
| 2026-05-06 14:02 | 52.37893 | 9.30692 | 32096 ft | 429 kts | 188° |
| 2026-05-06 14:02 | 52.34994 | 9.29945 | 32729 ft | 422 kts | 189° |
| 2026-05-06 14:03 | 52.32092 | 9.29190 | 33160 ft | 419 kts | 189° |
| 2026-05-06 14:03 | 52.29213 | 9.28436 | 33481 ft | 418 kts | 189° |
| 2026-05-06 14:03 | 52.26362 | 9.27691 | 33770 ft | 416 kts | 189° |
| 2026-05-06 14:03 | 52.23570 | 9.26981 | 34062 ft | 415 kts | 189° |
| 2026-05-06 14:04 | 52.20687 | 9.26429 | 34348 ft | 414 kts | 187° |
| 2026-05-06 14:04 | 52.17833 | 9.25910 | 34632 ft | 412 kts | 188° |
| 2026-05-06 14:04 | 52.14992 | 9.25387 | 34926 ft | 411 kts | 188° |
| 2026-05-06 14:04 | 52.12142 | 9.24865 | 35187 ft | 410 kts | 188° |
| 2026-05-06 14:05 | 52.09343 | 9.24355 | 35419 ft | 410 kts | 188° |
| 2026-05-06 14:05 | 52.06491 | 9.23838 | 35669 ft | 409 kts | 188° |
| 2026-05-06 14:05 | 52.03703 | 9.23190 | 35912 ft | 408 kts | 191° |
| 2026-05-06 14:05 | 52.00882 | 9.22440 | 36117 ft | 408 kts | 191° |
| 2026-05-06 14:06 | 51.98128 | 9.21726 | 36327 ft | 407 kts | 191° |
| 2026-05-06 14:06 | 51.95313 | 9.20997 | 36409 ft | 411 kts | 191° |
| 2026-05-06 14:06 | 51.89597 | 9.19514 | 36558 ft | 418 kts | 191° |
| 2026-05-06 14:07 | 51.83810 | 9.18166 | 36704 ft | 425 kts | 189° |
| 2026-05-06 14:07 | 51.77934 | 9.16916 | 36768 ft | 432 kts | 189° |
| 2026-05-06 14:08 | 51.71939 | 9.15631 | 36772 ft | 437 kts | 189° |
| 2026-05-06 14:08 | 51.65931 | 9.14338 | 36775 ft | 437 kts | 189° |
| 2026-05-06 14:09 | 51.59938 | 9.13051 | 36779 ft | 436 kts | 189° |
| 2026-05-06 14:09 | 51.53939 | 9.11762 | 36784 ft | 436 kts | 189° |
| 2026-05-06 14:10 | 51.47964 | 9.10136 | 36784 ft | 435 kts | 194° |
| 2026-05-06 14:10 | 51.42066 | 9.08121 | 36783 ft | 434 kts | 193° |
| 2026-05-06 14:11 | 51.36174 | 9.06136 | 36781 ft | 434 kts | 193° |
| 2026-05-06 14:11 | 51.30271 | 9.04326 | 36781 ft | 435 kts | 190° |
| 2026-05-06 14:12 | 51.24252 | 9.03110 | 36777 ft | 435 kts | 189° |
| 2026-05-06 14:12 | 51.18295 | 9.01905 | 36783 ft | 435 kts | 189° |
| 2026-05-06 14:13 | 51.12294 | 9.00702 | 36782 ft | 435 kts | 189° |
| 2026-05-06 14:13 | 51.06285 | 8.99507 | 36779 ft | 435 kts | 189° |
| 2026-05-06 14:14 | 51.00339 | 8.98330 | 36778 ft | 435 kts | 189° |
| 2026-05-06 14:14 | 50.94312 | 8.97138 | 36777 ft | 434 kts | 189° |
| 2026-05-06 14:15 | 50.88323 | 8.95957 | 36776 ft | 434 kts | 189° |
| 2026-05-06 14:15 | 50.82334 | 8.94786 | 36774 ft | 434 kts | 189° |
| 2026-05-06 14:16 | 50.76350 | 8.93616 | 36772 ft | 434 kts | 189° |
| 2026-05-06 14:16 | 50.70397 | 8.92455 | 36772 ft | 433 kts | 189° |
| 2026-05-06 14:17 | 50.64406 | 8.91286 | 36773 ft | 433 kts | 189° |
| 2026-05-06 14:17 | 50.58456 | 8.90130 | 36775 ft | 433 kts | 189° |
| 2026-05-06 14:18 | 50.52496 | 8.88974 | 36774 ft | 433 kts | 189° |
| 2026-05-06 14:18 | 50.46525 | 8.87817 | 36774 ft | 433 kts | 189° |
| 2026-05-06 14:19 | 50.40563 | 8.86666 | 36776 ft | 432 kts | 189° |
| 2026-05-06 14:19 | 50.34600 | 8.85518 | 36774 ft | 432 kts | 189° |
| 2026-05-06 14:20 | 50.28685 | 8.84273 | 36764 ft | 430 kts | 195° |
| 2026-05-06 14:20 | 50.25892 | 8.82756 | 36767 ft | 427 kts | 207° |
| 2026-05-06 14:20 | 50.23384 | 8.80286 | 36770 ft | 426 kts | 219° |
| 2026-05-06 14:21 | 50.18998 | 8.74038 | 36777 ft | 428 kts | 224° |
| 2026-05-06 14:21 | 50.14611 | 8.67845 | 36781 ft | 428 kts | 215° |
| 2026-05-06 14:22 | 50.09301 | 8.63613 | 36782 ft | 430 kts | 200° |
| 2026-05-06 14:22 | 50.03465 | 8.61833 | 36779 ft | 432 kts | 185° |
| 2026-05-06 14:23 | 49.97464 | 8.62636 | 36772 ft | 437 kts | 169° |
| 2026-05-06 14:23 | 49.91653 | 8.65362 | 36776 ft | 439 kts | 165° |
| 2026-05-06 14:24 | 49.85876 | 8.68258 | 36777 ft | 438 kts | 165° |
| 2026-05-06 14:24 | 49.80067 | 8.71146 | 36777 ft | 438 kts | 166° |
| 2026-05-06 14:25 | 49.74291 | 8.74011 | 36778 ft | 437 kts | 166° |
| 2026-05-06 14:25 | 49.68485 | 8.76880 | 36779 ft | 437 kts | 166° |
| 2026-05-06 14:26 | 49.62698 | 8.79735 | 36784 ft | 437 kts | 166° |
| 2026-05-06 14:26 | 49.56955 | 8.82562 | 36786 ft | 436 kts | 166° |
| 2026-05-06 14:27 | 49.51173 | 8.85399 | 36788 ft | 436 kts | 166° |
| 2026-05-06 14:27 | 49.45398 | 8.88227 | 36787 ft | 436 kts | 166° |
| 2026-05-06 14:28 | 49.39633 | 8.91044 | 36789 ft | 436 kts | 166° |
| 2026-05-06 14:28 | 49.33840 | 8.93867 | 36785 ft | 435 kts | 166° |
| 2026-05-06 14:29 | 49.28085 | 8.96663 | 36783 ft | 434 kts | 166° |
| 2026-05-06 14:29 | 49.22366 | 8.99437 | 36778 ft | 434 kts | 166° |
| 2026-05-06 14:30 | 49.16636 | 9.02207 | 36777 ft | 434 kts | 166° |
| 2026-05-06 14:30 | 49.10909 | 9.04971 | 36770 ft | 432 kts | 166° |
| 2026-05-06 14:31 | 49.05171 | 9.07733 | 36767 ft | 431 kts | 166° |
| 2026-05-06 14:31 | 48.99427 | 9.10488 | 36768 ft | 431 kts | 166° |
| 2026-05-06 14:32 | 48.93760 | 9.13204 | 36769 ft | 431 kts | 166° |
| 2026-05-06 14:32 | 48.88028 | 9.15939 | 36783 ft | 431 kts | 166° |
| 2026-05-06 14:33 | 48.82314 | 9.18650 | 36791 ft | 431 kts | 166° |
| 2026-05-06 14:33 | 48.76597 | 9.21367 | 36801 ft | 431 kts | 166° |
| 2026-05-06 14:34 | 48.70883 | 9.24077 | 36804 ft | 432 kts | 166° |
| 2026-05-06 14:34 | 48.65170 | 9.26781 | 36811 ft | 432 kts | 166° |
| 2026-05-06 14:35 | 48.59453 | 9.29481 | 36813 ft | 432 kts | 166° |
| 2026-05-06 14:35 | 48.53706 | 9.32188 | 36818 ft | 432 kts | 167° |
| 2026-05-06 14:36 | 48.48017 | 9.34863 | 36814 ft | 431 kts | 166° |
| 2026-05-06 14:36 | 48.42266 | 9.37560 | 36815 ft | 431 kts | 167° |
| 2026-05-06 14:37 | 48.36563 | 9.40229 | 36822 ft | 432 kts | 166° |
| 2026-05-06 14:37 | 48.30840 | 9.42902 | 36817 ft | 431 kts | 167° |
| 2026-05-06 14:38 | 48.25122 | 9.45568 | 36815 ft | 432 kts | 166° |
| 2026-05-06 14:38 | 48.19410 | 9.48227 | 36815 ft | 432 kts | 167° |
| 2026-05-06 14:39 | 48.16559 | 9.49551 | 36691 ft | 432 kts | 166° |
| 2026-05-06 14:39 | 48.13663 | 9.50892 | 36762 ft | 434 kts | 167° |
| 2026-05-06 14:39 | 48.07930 | 9.53681 | 36806 ft | 437 kts | 163° |
| 2026-05-06 14:40 | 48.02345 | 9.57277 | 36823 ft | 441 kts | 157° |
| 2026-05-06 14:40 | 47.96978 | 9.61807 | 36824 ft | 444 kts | 152° |
| 2026-05-06 14:41 | 47.91908 | 9.67117 | 36828 ft | 447 kts | 149° |
| 2026-05-06 14:41 | 47.86906 | 9.72539 | 36841 ft | 446 kts | 149° |
| 2026-05-06 14:42 | 47.81865 | 9.77952 | 36841 ft | 446 kts | 149° |
| 2026-05-06 14:42 | 47.76829 | 9.83350 | 36841 ft | 446 kts | 149° |
| 2026-05-06 14:43 | 47.71818 | 9.88716 | 36832 ft | 447 kts | 149° |
| 2026-05-06 14:43 | 47.66808 | 9.94066 | 36824 ft | 447 kts | 150° |
| 2026-05-06 14:44 | 47.61750 | 9.99457 | 36826 ft | 447 kts | 150° |
| 2026-05-06 14:45 | 47.54198 | 10.07487 | 36849 ft | 447 kts | 150° |
| 2026-05-06 14:45 | 47.49170 | 10.12815 | 36852 ft | 446 kts | 150° |
| 2026-05-06 14:46 | 47.44108 | 10.18113 | 36856 ft | 445 kts | 152° |
| 2026-05-06 14:46 | 47.38885 | 10.22940 | 36861 ft | 444 kts | 154° |
| 2026-05-06 14:47 | 47.33657 | 10.27718 | 36865 ft | 444 kts | 154° |
| 2026-05-06 14:47 | 47.28432 | 10.32447 | 36884 ft | 444 kts | 154° |
| 2026-05-06 14:48 | 47.23179 | 10.37169 | 36881 ft | 444 kts | 154° |
| 2026-05-06 14:48 | 47.17921 | 10.41893 | 36870 ft | 444 kts | 154° |
| 2026-05-06 14:49 | 47.12653 | 10.46614 | 36866 ft | 443 kts | 154° |
| 2026-05-06 14:49 | 47.07313 | 10.50991 | 36870 ft | 439 kts | 160° |
| 2026-05-06 14:50 | 47.01745 | 10.54472 | 36877 ft | 433 kts | 166° |
| 2026-05-06 14:50 | 46.96042 | 10.57152 | 36886 ft | 430 kts | 168° |
| 2026-05-06 14:51 | 46.90354 | 10.59755 | 36895 ft | 429 kts | 168° |
| 2026-05-06 14:51 | 46.84639 | 10.62334 | 36890 ft | 429 kts | 168° |
| 2026-05-06 14:52 | 46.78941 | 10.64894 | 36885 ft | 429 kts | 168° |
| 2026-05-06 14:52 | 46.73238 | 10.67447 | 36871 ft | 427 kts | 171° |
| 2026-05-06 14:53 | 46.67495 | 10.69445 | 36874 ft | 426 kts | 173° |
| 2026-05-06 14:53 | 46.61743 | 10.71336 | 36878 ft | 424 kts | 173° |
| 2026-05-06 14:54 | 46.56019 | 10.73213 | 36875 ft | 423 kts | 173° |
| 2026-05-06 14:54 | 46.50246 | 10.75098 | 36865 ft | 425 kts | 174° |
| 2026-05-06 14:55 | 46.44519 | 10.77035 | 36870 ft | 427 kts | 171° |
| 2026-05-06 14:55 | 46.38831 | 10.79530 | 36890 ft | 429 kts | 169° |
| 2026-05-06 14:55 | 46.36004 | 10.80803 | 36764 ft | 423 kts | 169° |
| 2026-05-06 14:56 | 46.33197 | 10.82066 | 36324 ft | 419 kts | 169° |
| 2026-05-06 14:56 | 46.30454 | 10.83293 | 35873 ft | 418 kts | 170° |
| 2026-05-06 14:56 | 46.27679 | 10.84525 | 35497 ft | 413 kts | 170° |
| 2026-05-06 14:56 | 46.24947 | 10.85736 | 35075 ft | 409 kts | 171° |
| 2026-05-06 14:57 | 46.22269 | 10.86915 | 34592 ft | 407 kts | 171° |
| 2026-05-06 14:57 | 46.19581 | 10.88095 | 33970 ft | 404 kts | 171° |
| 2026-05-06 14:57 | 46.16906 | 10.89267 | 33220 ft | 405 kts | 171° |
| 2026-05-06 14:57 | 46.14196 | 10.90453 | 32411 ft | 406 kts | 171° |
| 2026-05-06 14:58 | 46.11512 | 10.91623 | 31480 ft | 410 kts | 171° |
| 2026-05-06 14:58 | 46.08779 | 10.92817 | 30562 ft | 413 kts | 171° |
| 2026-05-06 14:58 | 46.06053 | 10.94008 | 29595 ft | 416 kts | 171° |
| 2026-05-06 14:58 | 46.03274 | 10.95216 | 28562 ft | 420 kts | 171° |
| 2026-05-06 14:59 | 46.00458 | 10.96439 | 27435 ft | 424 kts | 170° |
| 2026-05-06 14:59 | 45.97652 | 10.97661 | 26321 ft | 428 kts | 170° |
| 2026-05-06 14:59 | 45.94806 | 10.98901 | 25111 ft | 432 kts | 169° |
| 2026-05-06 14:59 | 45.91923 | 11.00151 | 23823 ft | 437 kts | 169° |
| 2026-05-06 15:00 | 45.89039 | 11.01405 | 22516 ft | 441 kts | 168° |
| 2026-05-06 15:00 | 45.86136 | 11.02663 | 21576 ft | 437 kts | 168° |
| 2026-05-06 15:00 | 45.83252 | 11.03919 | 20848 ft | 428 kts | 167° |
| 2026-05-06 15:00 | 45.80442 | 11.05141 | 20014 ft | 424 kts | 167° |
| 2026-05-06 15:01 | 45.77649 | 11.06353 | 19148 ft | 420 kts | 167° |
| 2026-05-06 15:01 | 45.74847 | 11.07568 | 18345 ft | 416 kts | 167° |
| 2026-05-06 15:01 | 45.72109 | 11.08753 | 17592 ft | 411 kts | 167° |
| 2026-05-06 15:01 | 45.69383 | 11.09934 | 17083 ft | 403 kts | 167° |
| 2026-05-06 15:02 | 45.66758 | 11.11072 | 16874 ft | 386 kts | 167° |
| 2026-05-06 15:02 | 45.64251 | 11.12157 | 16862 ft | 367 kts | 167° |
| 2026-05-06 15:02 | 45.61867 | 11.13359 | 16855 ft | 367 kts | 159° |
| 2026-05-06 15:02 | 45.59680 | 11.15211 | 16848 ft | 370 kts | 148° |
| 2026-05-06 15:03 | 45.57780 | 11.17670 | 16506 ft | 371 kts | 136° |
| 2026-05-06 15:03 | 45.56224 | 11.20648 | 15883 ft | 376 kts | 128° |
| 2026-05-06 15:03 | 45.54811 | 11.23795 | 15327 ft | 376 kts | 127° |
| 2026-05-06 15:03 | 45.53447 | 11.26898 | 14813 ft | 373 kts | 127° |
| 2026-05-06 15:04 | 45.52064 | 11.30020 | 14306 ft | 370 kts | 126° |
| 2026-05-06 15:04 | 45.50686 | 11.33108 | 13790 ft | 367 kts | 127° |
| 2026-05-06 15:04 | 45.49323 | 11.36148 | 13300 ft | 363 kts | 127° |
| 2026-05-06 15:04 | 45.47981 | 11.39127 | 13056 ft | 352 kts | 127° |
| 2026-05-06 15:05 | 45.46694 | 11.41983 | 12856 ft | 341 kts | 127° |
| 2026-05-06 15:05 | 45.45430 | 11.44777 | 12663 ft | 330 kts | 127° |
| 2026-05-06 15:05 | 45.44201 | 11.47484 | 12345 ft | 324 kts | 127° |
| 2026-05-06 15:05 | 45.42939 | 11.50131 | 11896 ft | 321 kts | 130° |
| 2026-05-06 15:06 | 45.41562 | 11.52601 | 11454 ft | 318 kts | 135° |
| 2026-05-06 15:06 | 45.40102 | 11.54940 | 11037 ft | 315 kts | 136° |
| 2026-05-06 15:06 | 45.38652 | 11.57227 | 10855 ft | 315 kts | 136° |
| 2026-05-06 15:06 | 45.37182 | 11.59545 | 10858 ft | 316 kts | 136° |
| 2026-05-06 15:07 | 45.35709 | 11.61883 | 10861 ft | 317 kts | 134° |
| 2026-05-06 15:07 | 45.34593 | 11.64584 | 10847 ft | 326 kts | 111° |
| 2026-05-06 15:07 | 45.34285 | 11.67790 | 10751 ft | 328 kts | 92° |
| 2026-05-06 15:07 | 45.34364 | 11.71020 | 10281 ft | 327 kts | 94° |
| 2026-05-06 15:08 | 45.34276 | 11.74254 | 9792 ft | 327 kts | 96° |
| 2026-05-06 15:08 | 45.34143 | 11.77445 | 9355 ft | 325 kts | 97° |
| 2026-05-06 15:08 | 45.34017 | 11.80633 | 8945 ft | 322 kts | 96° |
| 2026-05-06 15:08 | 45.33904 | 11.83781 | 8541 ft | 320 kts | 96° |
| 2026-05-06 15:09 | 45.33803 | 11.86901 | 8132 ft | 317 kts | 95° |
| 2026-05-06 15:09 | 45.33706 | 11.90027 | 7712 ft | 315 kts | 95° |
| 2026-05-06 15:09 | 45.33614 | 11.93102 | 7275 ft | 305 kts | 94° |
| 2026-05-06 15:09 | 45.33531 | 11.95988 | 6962 ft | 287 kts | 94° |
| 2026-05-06 15:10 | 45.33453 | 11.98744 | 6661 ft | 269 kts | 95° |
| 2026-05-06 15:10 | 45.33378 | 12.01325 | 6376 ft | 254 kts | 95° |
| 2026-05-06 15:10 | 45.33305 | 12.03758 | 6092 ft | 241 kts | 95° |
| 2026-05-06 15:10 | 45.33231 | 12.06119 | 5652 ft | 238 kts | 94° |
| 2026-05-06 15:11 | 45.33157 | 12.08442 | 5167 ft | 236 kts | 95° |
| 2026-05-06 15:11 | 45.33085 | 12.10767 | 4706 ft | 235 kts | 95° |
| 2026-05-06 15:11 | 45.33060 | 12.13067 | 4236 ft | 233 kts | 83° |
| 2026-05-06 15:11 | 45.33620 | 12.15140 | 3600 ft | 228 kts | 49° |
| 2026-05-06 15:12 | 45.34848 | 12.16453 | 3151 ft | 218 kts | 25° |
| 2026-05-06 15:12 | 45.36157 | 12.17379 | 2983 ft | 199 kts | 28° |
| 2026-05-06 15:12 | 45.37318 | 12.18438 | 3124 ft | 198 kts | 35° |
| 2026-05-06 15:12 | 45.38400 | 12.19637 | 2907 ft | 198 kts | 39° |
| 2026-05-06 15:13 | 45.39444 | 12.20907 | 2641 ft | 197 kts | 41° |
| 2026-05-06 15:13 | 45.40460 | 12.22207 | 2378 ft | 195 kts | 42° |
| 2026-05-06 15:13 | 45.41439 | 12.23479 | 2140 ft | 185 kts | 42° |
| 2026-05-06 15:13 | 45.42358 | 12.24672 | 1881 ft | 176 kts | 42° |
| 2026-05-06 15:14 | 45.43237 | 12.25809 | 1641 ft | 167 kts | 42° |
| 2026-05-06 15:14 | 45.44071 | 12.26885 | 1409 ft | 158 kts | 43° |
| 2026-05-06 15:14 | 45.44873 | 12.27918 | 1208 ft | 149 kts | 43° |
| 2026-05-06 15:14 | 45.45614 | 12.28868 | 992 ft | 138 kts | 44° |
| 2026-05-06 15:15 | 45.46318 | 12.29777 | 821 ft | 135 kts | 44° |
| 2026-05-06 15:15 | 45.47018 | 12.30678 | 639 ft | 135 kts | 45° |
| 2026-05-06 15:15 | 45.47713 | 12.31573 | 474 ft | 134 kts | 46° |
| 2026-05-06 15:15 | 45.48411 | 12.32467 | 268 ft | 134 kts | 44° |
| 2026-05-06 15:16 | 45.49104 | 12.33367 | 132 ft | 135 kts | 44° |
| 2026-05-06 15:16 | 45.49779 | 12.34236 | 10 ft | 123 kts | 45° |
| 2026-05-06 15:16 | 45.50307 | 12.34928 | 9 ft | 78 kts | 43° |
| 2026-05-06 15:16 | 45.50582 | 12.35277 | 10 ft | 28 kts | 41° |
| 2026-05-06 15:17 | 45.50703 | 12.35388 | 12 ft | 20 kts | 18° |
| 2026-05-06 15:17 | 45.50845 | 12.35432 | 12 ft | 20 kts | 11° |
| 2026-05-06 15:17 | 45.50917 | 12.35434 | 12 ft | 10 kts | 321° |
| 2026-05-06 15:17 | 45.50928 | 12.35409 | 12 ft | 0 kts | 286° |
| 2026-05-06 15:18 | 45.50932 | 12.35400 | 12 ft | 2 kts | 295° |
| 2026-05-06 15:18 | 45.50950 | 12.35356 | 11 ft | 8 kts | 301° |
| 2026-05-06 15:18 | 45.50962 | 12.35247 | 9 ft | 14 kts | 256° |
| 2026-05-06 15:18 | 45.50902 | 12.35139 | 8 ft | 9 kts | 222° |
| 2026-05-06 15:19 | 45.50840 | 12.35058 | 8 ft | 14 kts | 221° |
| 2026-05-06 15:19 | 45.50761 | 12.34955 | 7 ft | 15 kts | 223° |
| 2026-05-06 15:19 | 45.50698 | 12.34874 | 5 ft | 0 kts | 221° |
| 2026-05-06 15:19 | 45.50680 | 12.34852 | 5 ft | 6 kts | 221° |
| 2026-05-06 15:20 | 45.50641 | 12.34802 | 6 ft | 0 kts | 224° |
| 2026-05-06 15:20 | 45.50640 | 12.34801 | 6 ft | 1 kts | 225° |
| 2026-05-06 15:20 | 45.50618 | 12.34759 | 6 ft | 9 kts | 235° |
| 2026-05-06 15:20 | 45.50602 | 12.34640 | 6 ft | 12 kts | 266° |
| 2026-05-06 15:21 | 45.50598 | 12.34547 | 6 ft | 6 kts | 266° |
| 2026-05-06 15:21 | 45.50597 | 12.34472 | 7 ft | 7 kts | 268° |
| 2026-05-06 15:21 | 45.50599 | 12.34416 | 8 ft | 4 kts | 289° |
| 2026-05-06 15:21 | 45.50614 | 12.34368 | 8 ft | 5 kts | 283° |
| 2026-05-06 15:22 | 45.50616 | 12.34302 | 8 ft | 7 kts | 268° |
| 2026-05-06 15:22 | 45.50613 | 12.34226 | 8 ft | 7 kts | 267° |
| 2026-05-06 15:22 | 45.50612 | 12.34190 | 8 ft | 0 kts | 268° |